createdAt,value
2018-07-19T00:01:32.176Z,20.70
2018-07-19T00:06:35.284Z,20.60
2018-07-19T00:11:38.495Z,20.50
2018-07-19T00:16:41.613Z,20.50
2018-07-19T00:21:44.709Z,20.40
2018-07-19T00:26:47.839Z,20.30
2018-07-19T00:31:51.072Z,20.20
2018-07-19T00:36:54.155Z,20.20
2018-07-19T00:41:57.243Z,20.10
2018-07-19T00:47:00.332Z,20.10
2018-07-19T00:52:03.479Z,20.10
2018-07-19T00:57:07.856Z,20.00
2018-07-19T01:02:10.950Z,19.90
2018-07-19T01:07:14.047Z,19.80
2018-07-19T01:12:17.149Z,19.70
2018-07-19T01:17:20.246Z,19.60
2018-07-19T01:22:23.366Z,19.60
2018-07-19T01:27:26.534Z,19.50
2018-07-19T01:32:29.651Z,19.40
2018-07-19T01:37:32.811Z,19.40
2018-07-19T01:42:39.591Z,19.30
2018-07-19T01:47:42.755Z,19.30
2018-07-19T01:52:45.854Z,19.20
2018-07-19T01:57:49.002Z,19.20
2018-07-19T02:02:52.087Z,19.10
2018-07-19T02:07:55.181Z,19.10
2018-07-19T02:12:58.263Z,19.10
2018-07-19T02:18:01.341Z,19.00
2018-07-19T02:23:04.598Z,19.00
2018-07-19T02:28:07.749Z,18.90
2018-07-19T02:33:10.856Z,18.90
2018-07-19T02:38:13.947Z,18.90
2018-07-19T02:43:17.081Z,18.80
2018-07-19T02:48:20.190Z,18.80
2018-07-19T02:53:23.262Z,18.70
2018-07-19T02:58:26.406Z,18.60
2018-07-19T03:03:29.518Z,18.60
2018-07-19T03:08:32.680Z,18.60
2018-07-19T03:13:35.835Z,18.50
2018-07-19T03:18:38.941Z,18.40
2018-07-19T03:23:42.409Z,18.30
2018-07-19T03:28:45.506Z,18.30
2018-07-19T03:33:48.702Z,18.30
2018-07-19T03:38:52.432Z,18.30
2018-07-19T03:43:55.546Z,18.20
2018-07-19T03:48:58.672Z,18.20
2018-07-19T03:54:01.779Z,18.20
2018-07-19T03:59:04.887Z,18.10
2018-07-19T04:04:08.044Z,18.10
2018-07-19T04:09:11.127Z,18.10
2018-07-19T04:14:14.283Z,18.10
2018-07-19T04:19:17.400Z,18.20
2018-07-19T04:24:20.560Z,18.20
2018-07-19T04:29:24.102Z,18.30
2018-07-19T04:34:27.218Z,18.40
2018-07-19T04:39:30.309Z,18.50
2018-07-19T04:44:34.588Z,18.60
2018-07-19T04:49:37.703Z,18.70
2018-07-19T04:54:40.863Z,18.70
2018-07-19T04:59:43.929Z,18.80
2018-07-19T05:04:47.072Z,19.00
2018-07-19T05:09:50.209Z,19.10
2018-07-19T05:14:53.328Z,19.30
2018-07-19T05:19:56.502Z,19.40
2018-07-19T05:24:59.584Z,19.50
2018-07-19T05:30:02.785Z,19.50
2018-07-19T05:35:06.450Z,19.70
2018-07-19T05:40:09.652Z,19.80
2018-07-19T05:45:12.764Z,20.00
2018-07-19T05:50:15.984Z,20.20
2018-07-19T05:55:19.235Z,20.30
2018-07-19T06:00:22.426Z,20.60
2018-07-19T06:05:25.601Z,20.70
2018-07-19T06:10:28.935Z,20.70
2018-07-19T06:20:35.036Z,21.30
2018-07-19T06:25:38.224Z,21.80
2018-07-19T06:30:41.401Z,21.90
2018-07-19T06:35:45.574Z,22.50
2018-07-19T06:40:48.823Z,23.50
2018-07-19T06:45:51.960Z,23.50
2018-07-19T06:50:55.751Z,23.90
2018-07-19T06:55:58.912Z,23.90
2018-07-19T07:01:02.030Z,23.30
2018-07-19T07:06:05.360Z,23.10
2018-07-19T07:11:08.482Z,22.70
2018-07-19T07:16:12.245Z,22.10
2018-07-19T07:26:18.349Z,21.80
2018-07-19T07:31:21.459Z,21.50
2018-07-19T07:36:24.603Z,21.40
2018-07-19T07:41:27.773Z,21.30
2018-07-19T07:46:30.876Z,21.20
2018-07-19T07:51:33.974Z,21.40
2018-07-19T07:56:38.105Z,21.30
2018-07-19T08:01:41.256Z,21.40
2018-07-19T08:06:44.474Z,21.40
2018-07-19T08:11:47.587Z,21.50
2018-07-19T08:16:50.685Z,21.30
2018-07-19T08:21:53.788Z,21.20
2018-07-19T08:26:56.957Z,21.10
2018-07-19T08:32:00.019Z,21.00
2018-07-19T08:37:03.167Z,20.90
2018-07-19T08:42:06.264Z,20.80
2018-07-19T08:47:09.604Z,20.70
2018-07-19T08:52:12.727Z,20.70
2018-07-19T08:57:16.139Z,20.80
2018-07-19T09:02:19.277Z,20.80
2018-07-19T09:07:22.497Z,20.80
2018-07-19T09:12:25.640Z,20.90
2018-07-19T09:17:28.696Z,20.90
2018-07-19T09:27:34.691Z,21.10
2018-07-19T09:32:37.894Z,21.00
2018-07-19T09:37:40.964Z,21.10
2018-07-19T09:42:44.067Z,21.20
2018-07-19T09:47:47.131Z,21.20
2018-07-19T09:52:51.300Z,21.40
2018-07-19T09:57:54.398Z,21.60
2018-07-19T10:02:57.526Z,21.80
2018-07-19T10:08:00.834Z,21.90
2018-07-19T10:18:07.765Z,22.00
2018-07-19T10:23:10.878Z,22.00
2018-07-19T10:28:14.033Z,22.00
2018-07-19T10:33:17.184Z,22.00
2018-07-19T10:38:20.312Z,22.00
2018-07-19T10:43:23.849Z,21.80
2018-07-19T10:48:26.935Z,21.90
2018-07-19T10:53:31.135Z,22.00
2018-07-19T10:58:34.276Z,22.10
2018-07-19T11:03:37.373Z,22.10
2018-07-19T11:08:41.560Z,22.10
2018-07-19T11:13:44.615Z,22.20
2018-07-19T11:18:47.789Z,22.40
2018-07-19T11:23:50.899Z,22.50
2018-07-19T11:28:54.007Z,22.60
2018-07-19T11:33:57.136Z,22.60
2018-07-19T11:44:03.177Z,22.20
2018-07-19T11:49:06.374Z,22.20
2018-07-19T11:54:09.513Z,22.30
2018-07-19T11:59:12.611Z,22.40
2018-07-19T12:04:15.724Z,22.50
2018-07-19T12:09:18.819Z,22.50
2018-07-19T12:14:21.976Z,22.60
2018-07-19T12:19:25.136Z,22.60
2018-07-19T12:24:28.313Z,22.60
2018-07-19T12:29:32.004Z,22.70
2018-07-19T12:34:35.272Z,22.70
2018-07-19T12:39:38.391Z,22.80
2018-07-19T12:44:41.481Z,22.80
2018-07-19T12:49:44.650Z,22.90
2018-07-19T12:54:47.756Z,22.90
2018-07-19T12:59:50.892Z,22.50
2018-07-19T13:04:54.053Z,22.00
2018-07-19T13:09:57.138Z,21.90
2018-07-19T13:15:00.232Z,21.80
2018-07-19T13:20:03.323Z,21.80
2018-07-19T13:25:06.537Z,22.20
2018-07-19T13:30:09.617Z,22.40
2018-07-19T13:35:12.773Z,22.60
2018-07-19T13:40:15.945Z,22.70
2018-07-19T13:45:19.120Z,22.80
2018-07-19T13:50:22.224Z,23.10
2018-07-19T13:55:25.421Z,23.10
2018-07-19T14:00:28.941Z,23.20
2018-07-19T14:05:32.203Z,23.20
2018-07-19T14:10:35.320Z,23.40
2018-07-19T14:15:38.568Z,23.60
2018-07-19T14:20:41.720Z,23.70
2018-07-19T14:25:44.801Z,23.70
2018-07-19T14:30:47.974Z,23.70
2018-07-19T14:35:51.084Z,23.90
2018-07-19T14:40:54.227Z,23.90
2018-07-19T14:45:57.329Z,23.90
2018-07-19T14:51:00.668Z,24.00
2018-07-19T14:56:03.809Z,24.20
2018-07-19T15:01:07.017Z,24.40
2018-07-19T15:06:11.144Z,24.80
2018-07-19T15:11:14.277Z,24.90
2018-07-19T15:16:17.368Z,24.70
2018-07-19T15:21:20.554Z,24.50
2018-07-19T15:26:23.657Z,24.40
2018-07-19T15:31:26.852Z,24.40
2018-07-19T15:36:30.030Z,24.30
2018-07-19T15:41:33.176Z,24.10
2018-07-19T15:46:36.292Z,24.00
2018-07-19T15:51:39.336Z,24.00
2018-07-19T15:56:42.471Z,24.00
2018-07-19T16:01:45.577Z,24.10
2018-07-19T16:06:48.768Z,24.20
2018-07-19T16:11:51.844Z,24.30
2018-07-19T16:16:55.007Z,24.30
2018-07-19T16:27:01.200Z,24.40
2018-07-19T16:32:04.430Z,24.50
2018-07-19T16:37:09.620Z,24.80
2018-07-19T16:47:17.713Z,25.00
2018-07-19T16:52:20.867Z,25.00
2018-07-19T16:57:24.391Z,24.80
2018-07-19T17:02:27.468Z,24.80
2018-07-19T17:07:30.567Z,24.60
2018-07-19T17:12:33.984Z,24.50
2018-07-19T17:17:37.062Z,24.30
2018-07-19T17:22:40.236Z,24.30
2018-07-19T17:27:43.295Z,24.20
2018-07-19T17:32:46.501Z,24.10
2018-07-19T17:37:50.340Z,24.10
2018-07-19T17:42:53.549Z,24.10
2018-07-19T17:52:59.669Z,24.30
2018-07-19T18:03:05.749Z,24.50
2018-07-19T18:08:10.235Z,24.50
2018-07-19T18:13:13.401Z,24.40
2018-07-19T18:18:16.552Z,24.30
2018-07-19T18:23:19.674Z,24.20
2018-07-19T18:28:22.756Z,24.00
2018-07-19T18:33:25.870Z,23.90
2018-07-19T18:38:28.955Z,23.70
2018-07-19T18:43:32.031Z,23.60
2018-07-19T18:48:35.150Z,23.50
2018-07-19T18:58:41.230Z,23.20
2018-07-19T19:03:44.370Z,23.10
2018-07-19T19:13:50.499Z,22.90
2018-07-19T19:18:53.655Z,22.70
2018-07-19T19:23:57.618Z,22.60
2018-07-19T19:29:00.757Z,22.40
2018-07-19T19:34:03.887Z,22.30
2018-07-19T19:39:08.685Z,22.20
2018-07-19T19:44:12.800Z,22.10
2018-07-19T19:49:15.852Z,21.90
2018-07-19T19:54:19.031Z,21.80
2018-07-19T19:59:22.234Z,21.70
2018-07-19T20:04:25.356Z,21.60
2018-07-19T20:09:29.593Z,21.50
2018-07-19T20:14:32.669Z,21.30
2018-07-19T20:19:35.816Z,21.20
2018-07-19T20:24:39.450Z,21.10
2018-07-19T20:29:42.567Z,21.00
2018-07-19T20:34:45.635Z,20.80
2018-07-19T20:44:51.560Z,20.60
2018-07-19T20:49:54.645Z,20.60
2018-07-19T20:54:57.807Z,20.50
2018-07-19T21:00:01.049Z,20.40
2018-07-19T21:05:04.170Z,20.20
2018-07-19T21:10:07.348Z,20.00
2018-07-19T21:15:10.439Z,19.80
2018-07-19T21:20:13.692Z,19.50
2018-07-19T21:25:16.846Z,19.30
2018-07-19T21:30:19.954Z,19.10
2018-07-19T21:35:23.040Z,18.80
2018-07-19T21:40:26.424Z,18.70
2018-07-19T21:45:29.585Z,18.50
2018-07-19T21:50:32.741Z,18.40
2018-07-19T21:55:35.890Z,18.20
2018-07-19T22:00:44.484Z,18.10
2018-07-19T22:05:47.561Z,18.00
2018-07-19T22:10:50.699Z,17.90
2018-07-19T22:20:56.735Z,17.70
2018-07-19T22:31:02.973Z,17.50
2018-07-19T22:36:06.101Z,17.40
2018-07-19T22:41:09.632Z,17.30
2018-07-19T22:46:16.688Z,17.20
2018-07-19T22:51:22.134Z,17.10
2018-07-19T22:56:26.355Z,17.00
2018-07-19T23:01:29.440Z,17.00
2018-07-19T23:06:32.541Z,16.90
2018-07-19T23:11:35.794Z,16.80
2018-07-19T23:16:38.925Z,16.70
2018-07-19T23:21:42.007Z,16.60
2018-07-19T23:26:45.165Z,16.60
2018-07-19T23:31:48.393Z,16.50
2018-07-19T23:42:06.031Z,16.30
2018-07-19T23:47:12.750Z,16.30
2018-07-19T23:52:15.848Z,16.20
2018-07-19T23:57:18.936Z,16.20
